createdAt,value
2022-09-18T00:01:40.232Z,18.27
2022-09-18T00:04:13.132Z,18.28
2022-09-18T00:06:44.756Z,18.32
2022-09-18T00:09:14.748Z,17.54
2022-09-18T00:11:45.342Z,17.40
2022-09-18T00:14:15.806Z,17.02
2022-09-18T00:16:44.344Z,16.84
2022-09-18T00:19:14.765Z,16.56
2022-09-18T00:21:44.376Z,16.65
2022-09-18T00:24:13.692Z,16.62
2022-09-18T00:26:42.309Z,16.68
2022-09-18T00:29:11.727Z,17.20
2022-09-18T00:31:40.728Z,17.45
2022-09-18T00:34:13.284Z,17.07
2022-09-18T00:36:43.975Z,16.85
2022-09-18T00:39:12.370Z,16.79
2022-09-18T00:41:42.805Z,17.02
2022-09-18T00:44:35.080Z,17.40
2022-09-18T00:47:17.816Z,16.91
2022-09-18T00:49:51.154Z,17.68
2022-09-18T00:52:23.469Z,17.95
2022-09-18T00:54:56.601Z,18.08
2022-09-18T00:57:30.565Z,18.42
2022-09-18T00:59:59.097Z,18.60
2022-09-18T01:02:27.444Z,18.80
2022-09-18T01:04:56.085Z,18.26
2022-09-18T01:07:43.005Z,17.99
2022-09-18T01:10:24.185Z,18.22
2022-09-18T01:12:56.497Z,18.37
2022-09-18T01:15:32.504Z,18.32
2022-09-18T01:18:08.256Z,17.18
2022-09-18T01:21:05.951Z,17.66
2022-09-18T01:24:22.223Z,18.26
2022-09-18T01:26:59.275Z,17.51
2022-09-18T01:29:37.936Z,16.91
2022-09-18T01:32:10.840Z,17.18
2022-09-18T01:34:47.387Z,17.52
2022-09-18T01:37:22.453Z,17.00
2022-09-18T01:39:56.869Z,17.02
2022-09-18T01:42:29.716Z,16.58
2022-09-18T01:45:03.389Z,16.96
2022-09-18T01:47:37.118Z,16.38
2022-09-18T01:50:08.308Z,16.81
2022-09-18T01:52:40.678Z,17.46
2022-09-18T01:55:20.919Z,17.07
2022-09-18T01:57:54.803Z,16.48
2022-09-18T02:00:25.008Z,16.83
2022-09-18T02:02:56.855Z,16.78
2022-09-18T02:05:28.590Z,16.54
2022-09-18T02:08:06.377Z,17.19
2022-09-18T02:10:39.606Z,16.44
2022-09-18T02:13:10.006Z,16.27
2022-09-18T02:15:42.867Z,16.77
2022-09-18T02:18:16.369Z,16.84
2022-09-18T02:20:46.177Z,16.81
2022-09-18T02:23:15.670Z,16.63
2022-09-18T02:25:47.250Z,17.03
2022-09-18T02:28:17.913Z,17.34
2022-09-18T02:30:47.981Z,17.07
2022-09-18T02:33:27.550Z,17.14
2022-09-18T02:36:18.144Z,16.94
2022-09-18T02:38:55.465Z,16.96
2022-09-18T02:41:35.338Z,16.64
2022-09-18T02:44:11.794Z,17.77
2022-09-18T02:46:50.156Z,17.84
2022-09-18T02:49:29.218Z,17.26
2022-09-18T02:52:03.904Z,17.22
2022-09-18T02:54:37.455Z,17.22
2022-09-18T02:57:11.132Z,17.19
2022-09-18T02:59:43.089Z,17.70
2022-09-18T03:02:13.678Z,17.26
2022-09-18T03:04:42.027Z,17.49
2022-09-18T03:07:10.473Z,17.73
2022-09-18T03:09:38.888Z,17.68
2022-09-18T03:12:07.404Z,18.00
2022-09-18T03:14:35.723Z,16.96
2022-09-18T03:17:04.577Z,17.05
2022-09-18T03:19:34.255Z,16.77
2022-09-18T03:22:02.533Z,17.48
2022-09-18T03:24:31.299Z,17.73
2022-09-18T03:26:59.620Z,17.79
2022-09-18T03:29:27.998Z,17.55
2022-09-18T03:31:56.651Z,17.80
2022-09-18T03:34:24.977Z,17.91
2022-09-18T03:36:54.689Z,17.25
2022-09-18T03:39:23.099Z,16.88
2022-09-18T03:41:51.567Z,17.57
2022-09-18T03:44:19.783Z,17.65
2022-09-18T03:46:48.219Z,17.72
2022-09-18T03:49:16.538Z,17.44
2022-09-18T03:51:44.943Z,17.12
2022-09-18T03:54:15.205Z,16.86
2022-09-18T03:56:43.428Z,16.78
2022-09-18T03:59:11.741Z,16.60
2022-09-18T04:01:40.087Z,16.57
2022-09-18T04:04:08.480Z,17.26
2022-09-18T04:06:36.797Z,17.23
2022-09-18T04:09:05.256Z,17.27
2022-09-18T04:11:34.938Z,17.41
2022-09-18T04:14:03.257Z,17.53
2022-09-18T04:16:32.281Z,17.83
2022-09-18T04:19:00.656Z,18.10
2022-09-18T04:21:28.946Z,17.17
2022-09-18T04:24:00.445Z,17.72
2022-09-18T04:26:28.809Z,16.93
2022-09-18T04:28:58.484Z,16.64
2022-09-18T04:31:27.046Z,16.60
2022-09-18T04:33:59.044Z,17.25
2022-09-18T04:36:27.637Z,16.89
2022-09-18T04:38:56.229Z,17.08
2022-09-18T04:41:26.961Z,16.97
2022-09-18T04:43:55.292Z,15.91
2022-09-18T04:46:25.313Z,17.52
2022-09-18T04:48:55.358Z,17.20
2022-09-18T04:51:24.058Z,17.47
2022-09-18T04:53:52.919Z,17.70
2022-09-18T04:56:22.109Z,17.26
2022-09-18T04:58:51.275Z,18.03
2022-09-18T05:01:20.149Z,17.52
2022-09-18T05:03:49.877Z,17.73
2022-09-18T05:06:18.833Z,17.98
2022-09-18T05:08:47.603Z,17.38
2022-09-18T05:11:16.025Z,17.51
2022-09-18T05:13:44.309Z,17.67
2022-09-18T05:16:13.225Z,16.96
2022-09-18T05:18:42.283Z,17.12
2022-09-18T05:21:13.020Z,16.69
2022-09-18T05:23:42.736Z,17.24
2022-09-18T05:26:11.361Z,17.83
2022-09-18T05:28:40.342Z,18.00
2022-09-18T05:31:09.163Z,18.35
2022-09-18T05:33:38.969Z,17.74
2022-09-18T05:36:08.095Z,18.05
2022-09-18T05:38:37.756Z,18.16
2022-09-18T05:41:06.888Z,18.08
2022-09-18T05:43:35.505Z,18.34
2022-09-18T05:46:03.828Z,18.41
2022-09-18T05:48:32.218Z,18.99
2022-09-18T05:51:01.404Z,19.84
2022-09-18T05:53:29.645Z,19.79
2022-09-18T05:56:00.741Z,20.01
2022-09-18T05:58:29.126Z,20.47
2022-09-18T06:01:01.713Z,20.47
2022-09-18T06:03:30.072Z,20.86
2022-09-18T06:05:58.477Z,21.22
2022-09-18T06:08:26.796Z,21.59
2022-09-18T06:10:55.088Z,21.31
2022-09-18T06:13:24.755Z,21.89
2022-09-18T06:15:53.571Z,21.96
2022-09-18T06:18:22.913Z,22.33
2022-09-18T06:20:55.076Z,22.27
2022-09-18T06:23:24.321Z,21.81
2022-09-18T06:25:59.317Z,21.46
2022-09-18T06:28:30.894Z,21.25
2022-09-18T06:30:59.757Z,21.50
2022-09-18T06:33:29.516Z,22.01
2022-09-18T06:35:57.804Z,22.18
2022-09-18T06:38:26.121Z,20.80
2022-09-18T06:40:55.970Z,21.49
2022-09-18T06:43:24.291Z,21.99
2022-09-18T06:45:55.451Z,22.05
2022-09-18T06:48:24.035Z,22.02
2022-09-18T06:50:53.893Z,21.95
2022-09-18T06:53:22.969Z,21.83
2022-09-18T06:55:51.448Z,22.12
2022-09-18T06:58:21.129Z,20.98
2022-09-18T07:00:49.483Z,22.03
2022-09-18T07:03:19.313Z,21.75
2022-09-18T07:05:47.589Z,21.93
2022-09-18T07:08:15.906Z,22.76
2022-09-18T07:10:44.718Z,21.89
2022-09-18T07:13:13.018Z,22.56
2022-09-18T07:15:41.326Z,22.25
2022-09-18T07:18:09.640Z,22.19
2022-09-18T07:20:39.370Z,21.89
2022-09-18T07:23:07.681Z,22.21
2022-09-18T07:25:36.092Z,22.17
2022-09-18T07:28:08.072Z,21.76
2022-09-18T07:30:36.696Z,21.76
2022-09-18T07:33:06.247Z,22.47
2022-09-18T07:35:35.152Z,21.97
2022-09-18T07:38:07.593Z,22.65
2022-09-18T07:40:36.408Z,23.18
2022-09-18T07:43:06.713Z,23.03
2022-09-18T07:45:35.340Z,22.34
2022-09-18T07:48:05.325Z,22.95
2022-09-18T07:50:34.253Z,23.18
2022-09-18T07:53:05.616Z,24.20
2022-09-18T07:55:36.774Z,23.50
2022-09-18T07:58:07.625Z,23.36
2022-09-18T08:00:37.823Z,23.95
2022-09-18T08:03:07.982Z,22.81
2022-09-18T08:05:36.362Z,22.74
2022-09-18T08:08:07.568Z,24.45
2022-09-18T08:10:36.760Z,24.15
2022-09-18T08:13:05.215Z,25.42
2022-09-18T08:15:34.647Z,24.94
2022-09-18T08:18:02.981Z,24.22
2022-09-18T08:20:31.530Z,23.41
2022-09-18T08:22:59.872Z,23.11
2022-09-18T08:25:30.167Z,23.16
2022-09-18T08:28:02.123Z,24.09
2022-09-18T08:30:30.993Z,25.43
2022-09-18T08:33:00.410Z,26.19
2022-09-18T08:35:29.060Z,25.88
2022-09-18T08:37:58.192Z,25.12
2022-09-18T08:40:42.484Z,25.85
2022-09-18T08:43:22.082Z,25.68
2022-09-18T08:45:58.745Z,24.89
2022-09-18T08:48:32.341Z,25.50
2022-09-18T08:51:04.437Z,25.69
2022-09-18T08:53:40.302Z,26.46
2022-09-18T08:56:16.969Z,26.75
2022-09-18T08:58:50.912Z,26.92
2022-09-18T09:01:21.255Z,27.49
2022-09-18T09:04:00.918Z,27.87
2022-09-18T09:06:47.092Z,27.88
2022-09-18T09:09:32.668Z,27.93
2022-09-18T09:12:10.387Z,27.62
2022-09-18T09:14:57.507Z,28.38
2022-09-18T09:17:39.958Z,28.66
2022-09-18T09:20:21.686Z,27.20
2022-09-18T09:22:58.052Z,27.84
2022-09-18T09:25:34.403Z,27.69
2022-09-18T09:28:16.686Z,28.62
2022-09-18T09:30:48.368Z,28.83
2022-09-18T09:33:23.393Z,29.02
2022-09-18T09:35:55.708Z,29.67
2022-09-18T09:38:40.737Z,29.71
2022-09-18T09:41:19.487Z,30.85
2022-09-18T09:43:57.469Z,30.31
2022-09-18T09:46:41.953Z,30.39
2022-09-18T09:49:16.643Z,29.06
2022-09-18T09:51:53.853Z,28.83
2022-09-18T09:54:22.316Z,29.08
2022-09-18T09:56:57.613Z,29.33
2022-09-18T09:59:34.747Z,28.45
2022-09-18T10:02:23.363Z,27.75
2022-09-18T10:04:58.135Z,26.57
2022-09-18T10:07:32.368Z,26.84
2022-09-18T10:10:04.763Z,25.84
2022-09-18T10:12:42.377Z,27.03
2022-09-18T10:15:21.119Z,27.56
2022-09-18T10:17:51.973Z,27.48
2022-09-18T10:20:26.700Z,27.78
2022-09-18T10:22:57.300Z,27.75
2022-09-18T10:25:32.355Z,28.56
2022-09-18T10:28:00.690Z,28.86
2022-09-18T10:30:30.569Z,29.69
2022-09-18T10:32:59.965Z,30.32
2022-09-18T10:35:45.855Z,30.09
2022-09-18T10:38:30.498Z,27.51
2022-09-18T10:41:13.277Z,28.10
2022-09-18T10:43:58.118Z,29.29
2022-09-18T10:46:30.672Z,27.91
2022-09-18T10:49:02.584Z,27.23
2022-09-18T10:51:31.022Z,26.04
2022-09-18T10:54:15.775Z,24.49
2022-09-18T10:56:44.147Z,24.11
2022-09-18T10:59:32.542Z,23.96
2022-09-18T11:02:05.064Z,23.76
2022-09-18T11:04:34.495Z,23.12
2022-09-18T11:07:07.652Z,23.07
2022-09-18T11:09:39.812Z,23.66
2022-09-18T11:12:16.393Z,24.41
2022-09-18T11:14:47.687Z,24.57
2022-09-18T11:17:26.266Z,24.38
2022-09-18T11:19:57.375Z,24.80
2022-09-18T11:22:39.909Z,25.46
2022-09-18T11:25:18.278Z,24.85
2022-09-18T11:27:48.443Z,25.43
2022-09-18T11:30:22.134Z,26.25
2022-09-18T11:32:54.980Z,26.24
2022-09-18T11:35:24.073Z,27.88
2022-09-18T11:37:54.634Z,28.14
2022-09-18T11:40:26.281Z,29.47
2022-09-18T11:42:56.084Z,28.55
2022-09-18T11:45:49.161Z,29.36
2022-09-18T11:48:27.630Z,28.77
2022-09-18T11:50:58.970Z,26.84
2022-09-18T11:53:31.116Z,28.11
2022-09-18T11:56:04.768Z,29.49
2022-09-18T11:58:39.778Z,28.69
2022-09-18T12:01:22.323Z,29.02
2022-09-18T12:03:57.744Z,29.47
2022-09-18T12:06:35.799Z,27.85
2022-09-18T12:09:12.026Z,26.38
2022-09-18T12:11:58.561Z,25.80
2022-09-18T12:14:33.617Z,28.12
2022-09-18T12:17:14.824Z,28.31
2022-09-18T12:19:49.427Z,27.95
2022-09-18T12:22:21.482Z,28.98
2022-09-18T12:24:50.806Z,29.63
2022-09-18T12:27:32.772Z,29.54
2022-09-18T12:30:09.851Z,29.07
2022-09-18T12:33:06.767Z,28.66
2022-09-18T12:35:49.461Z,27.78
2022-09-18T12:38:34.851Z,27.67
2022-09-18T12:41:17.226Z,26.89
2022-09-18T12:44:01.527Z,28.78
2022-09-18T12:46:44.169Z,29.03
2022-09-18T12:49:31.879Z,30.49
2022-09-18T12:52:11.658Z,29.56
2022-09-18T12:54:59.311Z,28.24
2022-09-18T12:57:46.825Z,27.80
2022-09-18T13:00:16.645Z,27.05
2022-09-18T13:02:53.756Z,27.80
2022-09-18T13:05:29.163Z,28.34
2022-09-18T13:08:04.503Z,28.66
2022-09-18T13:10:37.611Z,29.05
2022-09-18T13:13:14.057Z,27.98
2022-09-18T13:15:54.106Z,27.93
2022-09-18T13:18:31.447Z,28.53
2022-09-18T13:21:02.349Z,28.52
2022-09-18T13:23:35.151Z,27.91
2022-09-18T13:26:07.092Z,27.93
2022-09-18T13:28:36.517Z,27.63
2022-09-18T13:31:29.126Z,28.49
2022-09-18T13:34:00.552Z,27.33
2022-09-18T13:36:32.275Z,27.82
2022-09-18T13:39:04.813Z,27.58
2022-09-18T13:41:44.600Z,29.15
2022-09-18T13:44:20.939Z,28.00
2022-09-18T13:46:51.351Z,28.33
2022-09-18T13:49:23.690Z,27.33
2022-09-18T13:51:52.033Z,27.40
2022-09-18T13:54:28.171Z,27.31
2022-09-18T13:57:21.976Z,26.93
2022-09-18T14:00:01.855Z,26.87
2022-09-18T14:02:33.227Z,25.89
2022-09-18T14:05:04.663Z,25.54
2022-09-18T14:08:15.354Z,25.00
2022-09-18T14:11:19.537Z,25.06
2022-09-18T14:13:54.496Z,24.74
2022-09-18T14:16:35.622Z,25.32
2022-09-18T14:19:07.595Z,25.23
2022-09-18T14:21:41.953Z,24.45
2022-09-18T14:24:41.301Z,23.70
2022-09-18T14:27:42.027Z,24.61
2022-09-18T14:30:21.060Z,24.91
2022-09-18T14:33:04.898Z,25.62
2022-09-18T14:35:47.060Z,24.92
2022-09-18T14:38:33.623Z,25.18
2022-09-18T14:41:19.509Z,24.49
2022-09-18T14:43:54.231Z,24.15
2022-09-18T14:46:25.967Z,23.76
2022-09-18T14:48:56.502Z,23.86
2022-09-18T14:51:28.423Z,23.96
2022-09-18T14:53:58.272Z,23.48
2022-09-18T14:56:30.456Z,22.36
2022-09-18T14:59:01.854Z,22.60
2022-09-18T15:01:33.841Z,23.15
2022-09-18T15:04:05.683Z,23.26
2022-09-18T15:06:42.442Z,23.33
2022-09-18T15:09:14.417Z,22.91
2022-09-18T15:12:01.909Z,22.86
2022-09-18T15:14:38.939Z,23.21
2022-09-18T15:17:20.076Z,22.91
2022-09-18T15:20:02.613Z,21.96
2022-09-18T15:22:32.071Z,22.55
2022-09-18T15:25:02.187Z,22.74
2022-09-18T15:27:31.628Z,23.36
2022-09-18T15:30:04.007Z,22.97
2022-09-18T15:32:42.453Z,22.46
2022-09-18T15:35:20.505Z,22.81
2022-09-18T15:37:54.881Z,22.76
2022-09-18T15:40:31.630Z,22.42
2022-09-18T15:43:04.382Z,22.39
2022-09-18T15:45:37.191Z,22.54
2022-09-18T15:48:36.638Z,22.26
2022-09-18T15:51:10.683Z,21.85
2022-09-18T15:53:38.914Z,21.73
2022-09-18T15:56:11.209Z,21.22
2022-09-18T15:58:53.092Z,21.18
2022-09-18T16:01:27.593Z,20.98
2022-09-18T16:04:20.280Z,20.29
2022-09-18T16:06:55.680Z,21.03
2022-09-18T16:09:35.763Z,20.98
2022-09-18T16:12:34.635Z,21.26
2022-09-18T16:15:18.703Z,20.27
2022-09-18T16:18:03.997Z,20.57
2022-09-18T16:20:39.818Z,19.88
2022-09-18T16:23:20.386Z,19.34
2022-09-18T16:26:03.756Z,18.96
2022-09-18T16:28:34.150Z,18.74
2022-09-18T16:31:02.592Z,18.45
2022-09-18T16:33:32.540Z,18.79
2022-09-18T16:36:06.775Z,18.81
2022-09-18T16:38:35.882Z,18.91
2022-09-18T16:41:04.418Z,18.30
2022-09-18T16:43:32.790Z,18.52
2022-09-18T16:46:01.126Z,18.23
2022-09-18T16:48:30.273Z,18.11
2022-09-18T16:50:58.676Z,17.96
2022-09-18T16:53:28.850Z,17.85
2022-09-18T16:55:59.342Z,17.32
2022-09-18T16:58:29.290Z,17.70
2022-09-18T17:00:58.956Z,17.51
2022-09-18T17:03:28.600Z,17.43
2022-09-18T17:05:57.108Z,17.56
2022-09-18T17:08:25.433Z,17.28
2022-09-18T17:10:55.175Z,17.22
2022-09-18T17:13:23.733Z,17.15
2022-09-18T17:15:52.206Z,16.88
2022-09-18T17:18:20.579Z,17.06
2022-09-18T17:20:48.860Z,16.99
2022-09-18T17:23:17.231Z,17.02
2022-09-18T17:25:45.561Z,16.61
2022-09-18T17:28:18.437Z,16.67
2022-09-18T17:30:47.092Z,16.84
2022-09-18T17:33:19.774Z,16.78
2022-09-18T17:35:48.752Z,16.59
2022-09-18T17:38:17.500Z,16.47
2022-09-18T17:40:57.184Z,16.48
2022-09-18T17:43:26.932Z,16.27
2022-09-18T17:45:56.712Z,15.80
2022-09-18T17:48:26.046Z,16.14
2022-09-18T17:50:58.822Z,16.87
2022-09-18T17:53:27.399Z,17.04
2022-09-18T17:55:57.615Z,16.64
2022-09-18T17:58:27.562Z,15.72
2022-09-18T18:00:56.934Z,15.98
2022-09-18T18:03:27.048Z,15.98
2022-09-18T18:05:57.896Z,16.04
2022-09-18T18:08:27.551Z,16.07
2022-09-18T18:10:56.276Z,15.97
2022-09-18T18:13:26.280Z,15.72
2022-09-18T18:15:54.905Z,15.91
2022-09-18T18:18:23.285Z,15.65
2022-09-18T18:20:51.724Z,15.99
2022-09-18T18:23:20.558Z,16.23
2022-09-18T18:25:48.944Z,15.83
2022-09-18T18:28:17.318Z,16.27
2022-09-18T18:30:47.864Z,16.23
2022-09-18T18:33:16.213Z,15.82
2022-09-18T18:35:45.176Z,15.87
2022-09-18T18:38:13.971Z,15.84
2022-09-18T18:40:42.534Z,15.80
2022-09-18T18:43:14.391Z,15.58
2022-09-18T18:45:53.624Z,15.65
2022-09-18T18:48:21.939Z,15.97
2022-09-18T18:50:50.892Z,15.80
2022-09-18T18:53:19.339Z,16.39
2022-09-18T18:55:49.575Z,16.05
2022-09-18T18:58:19.303Z,15.86
2022-09-18T19:00:47.734Z,15.77
2022-09-18T19:03:17.620Z,14.61
2022-09-18T19:05:46.372Z,14.87
2022-09-18T19:08:14.956Z,14.61
2022-09-18T19:10:43.446Z,15.18
2022-09-18T19:13:11.785Z,15.64
2022-09-18T19:15:40.203Z,16.02
2022-09-18T19:18:10.218Z,16.24
2022-09-18T19:20:39.988Z,16.13
2022-09-18T19:23:13.284Z,16.02
2022-09-18T19:25:41.647Z,15.52
2022-09-18T19:28:10.239Z,15.52
2022-09-18T19:30:41.357Z,15.55
2022-09-18T19:33:15.131Z,15.26
2022-09-18T19:35:45.039Z,15.17
2022-09-18T19:38:20.439Z,14.81
2022-09-18T19:40:51.253Z,14.45
2022-09-18T19:43:25.483Z,13.79
2022-09-18T19:45:53.973Z,13.94
2022-09-18T19:48:25.374Z,13.68
2022-09-18T19:50:55.594Z,13.77
2022-09-18T19:53:24.487Z,13.41
2022-09-18T19:55:52.830Z,13.22
2022-09-18T19:58:21.431Z,12.87
2022-09-18T20:00:49.993Z,13.00
2022-09-18T20:03:18.392Z,13.26
2022-09-18T20:05:46.860Z,12.90
2022-09-18T20:08:16.681Z,13.40
2022-09-18T20:10:45.541Z,13.50
2022-09-18T20:13:13.872Z,13.42
2022-09-18T20:15:42.230Z,13.31
2022-09-18T20:18:10.586Z,13.55
2022-09-18T20:20:38.940Z,13.63
2022-09-18T20:23:07.729Z,13.15
2022-09-18T20:25:37.472Z,13.33
2022-09-18T20:28:05.895Z,13.74
2022-09-18T20:30:34.233Z,14.70
2022-09-18T20:33:04.319Z,14.29
2022-09-18T20:35:32.658Z,14.91
2022-09-18T20:38:04.208Z,14.43
2022-09-18T20:40:32.904Z,14.37
2022-09-18T20:43:04.474Z,13.47
2022-09-18T20:45:33.926Z,13.37
2022-09-18T20:48:04.195Z,12.80
2022-09-18T20:50:32.532Z,13.10
2022-09-18T20:53:03.543Z,12.93
2022-09-18T20:55:31.808Z,12.60
2022-09-18T20:58:02.345Z,12.46
2022-09-18T21:00:32.274Z,12.14
2022-09-18T21:03:00.669Z,12.59
2022-09-18T21:05:28.978Z,12.15
2022-09-18T21:07:59.995Z,12.24
2022-09-18T21:10:29.262Z,12.02
2022-09-18T21:12:58.835Z,12.22
2022-09-18T21:15:27.139Z,11.88
2022-09-18T21:17:57.515Z,12.22
2022-09-18T21:20:26.864Z,12.04
2022-09-18T21:23:12.424Z,12.61
2022-09-18T21:25:40.729Z,13.50
2022-09-18T21:28:09.005Z,14.20
2022-09-18T21:30:37.287Z,14.46
2022-09-18T21:33:10.787Z,14.42
2022-09-18T21:35:42.621Z,14.94
2022-09-18T21:38:12.966Z,14.57
2022-09-18T21:40:41.367Z,13.96
2022-09-18T21:43:09.879Z,13.47
2022-09-18T21:45:38.256Z,13.26
2022-09-18T21:48:07.928Z,14.13
2022-09-18T21:50:36.799Z,14.44
2022-09-18T21:53:05.325Z,13.85
2022-09-18T21:55:38.348Z,13.31
2022-09-18T21:58:07.317Z,13.22
2022-09-18T22:00:35.663Z,13.24
2022-09-18T22:03:04.006Z,13.21
2022-09-18T22:05:36.494Z,13.19
2022-09-18T22:08:04.836Z,13.87
2022-09-18T22:10:33.694Z,14.34
2022-09-18T22:13:01.952Z,14.79
2022-09-18T22:15:30.328Z,14.41
2022-09-18T22:17:58.776Z,14.66
2022-09-18T22:20:28.425Z,14.92
2022-09-18T22:22:58.129Z,15.11
2022-09-18T22:25:26.418Z,15.21
2022-09-18T22:27:54.705Z,14.18
2022-09-18T22:30:23.292Z,14.86
2022-09-18T22:32:51.563Z,14.82
2022-09-18T22:35:19.912Z,14.86
2022-09-18T22:37:48.211Z,14.89
2022-09-18T22:40:18.087Z,15.03
2022-09-18T22:42:46.505Z,14.89
2022-09-18T22:45:14.849Z,14.57
2022-09-18T22:47:43.063Z,14.93
2022-09-18T22:50:11.856Z,15.04
2022-09-18T22:52:41.174Z,15.03
2022-09-18T22:55:10.037Z,15.07
2022-09-18T22:57:39.728Z,15.02
2022-09-18T23:00:09.862Z,14.77
2022-09-18T23:02:40.113Z,14.13
2022-09-18T23:05:09.204Z,14.74
2022-09-18T23:07:38.913Z,14.81
2022-09-18T23:10:08.549Z,14.84
2022-09-18T23:12:36.832Z,14.28
2022-09-18T23:15:07.308Z,14.63
2022-09-18T23:17:35.606Z,13.45
2022-09-18T23:20:04.124Z,13.77
2022-09-18T23:22:32.388Z,14.06
2022-09-18T23:25:00.683Z,13.93
2022-09-18T23:27:28.943Z,13.99
2022-09-18T23:29:57.236Z,13.43
2022-09-18T23:32:26.937Z,14.07
2022-09-18T23:34:55.679Z,13.57
2022-09-18T23:37:24.133Z,14.21
2022-09-18T23:39:52.477Z,13.66
2022-09-18T23:42:20.793Z,14.01
2022-09-18T23:44:49.061Z,13.95
2022-09-18T23:47:17.345Z,14.19
2022-09-18T23:49:47.110Z,14.08
2022-09-18T23:52:15.491Z,14.33
2022-09-18T23:54:43.798Z,14.33
2022-09-18T23:57:12.147Z,13.90
2022-09-18T23:59:40.463Z,14.03
